Time;durP1;ratioP1;P1;durP2;ratioP2;P2;SDS_P1;SDS_P2;PMS_P1;PMS_P2;Temp;Humidity;BMP_temperature;BMP_pressure;BME280_temperature;BME280_humidity;BME280_pressure;Samples;Min_cycle;Max_cycle;Signal;HPM_P1;HPM_P2
2021/06/17 00:12:31;;;;;;;16.60;13.17;;;21.90;97.30;;;;;;4827369;29;20408;-92
2021/06/17 00:24:48;;;;;;;21.17;12.80;;;21.80;97.30;;;;;;4824773;29;20431;-90
2021/06/17 00:27:16;;;;;;;15.27;11.90;;;21.80;97.30;;;;;;4824770;29;20493;-90
2021/06/17 00:33:50;;;;;;;15.40;12.30;;;21.70;97.30;;;;;;4824736;29;20388;-90
2021/06/17 00:36:22;;;;;;;17.23;11.83;;;21.60;97.30;;;;;;4809791;29;20477;-90
2021/06/17 00:38:50;;;;;;;16.33;12.10;;;21.50;97.30;;;;;;4825988;29;20437;-90
2021/06/17 00:41:19;;;;;;;15.63;13.30;;;21.50;97.30;;;;;;4809777;29;20516;-90
2021/06/17 00:43:50;;;;;;;17.33;12.33;;;21.40;97.30;;;;;;4854231;23;20574;-90
2021/06/17 00:49:50;;;;;;;17.40;13.00;;;21.20;97.30;;;;;;4811110;29;20430;-90
2021/06/17 00:52:21;;;;;;;15.50;12.50;;;21.10;97.30;;;;;;4844055;29;20448;-90
2021/06/17 01:01:20;;;;;;;18.37;12.97;;;20.90;97.30;;;;;;4807413;29;20433;-90
2021/06/17 01:03:50;;;;;;;19.03;13.10;;;20.80;97.30;;;;;;4838640;23;20496;-90
2021/06/17 01:06:50;;;;;;;16.87;12.67;;;20.70;97.30;;;;;;4922917;29;20411;-90
2021/06/17 01:09:46;;;;;;;17.90;12.93;;;20.70;97.30;;;;;;4923710;29;20431;-90
2021/06/17 01:12:55;;;;;;;18.23;13.40;;;20.60;97.30;;;;;;4828042;29;20852;-90
2021/06/17 01:15:23;;;;;;;18.50;12.80;;;20.60;97.30;;;;;;4906537;23;20503;-90
2021/06/17 01:18:03;;;;;;;17.27;12.50;;;20.60;97.30;;;;;;4940032;29;20784;-90
2021/06/17 01:20:33;;;;;;;16.00;12.80;;;20.60;97.30;;;;;;4939912;29;20452;-89
2021/06/17 01:23:27;;;;;;;15.37;12.97;;;20.60;97.30;;;;;;4921702;29;20411;-90
2021/06/17 01:26:18;;;;;;;16.63;12.83;;;20.60;97.30;;;;;;4921781;29;20435;-90
2021/06/17 01:28:46;;;;;;;14.57;12.00;;;20.60;97.30;;;;;;4921071;29;20421;-90
2021/06/17 01:31:16;;;;;;;16.90;13.37;;;20.50;97.30;;;;;;4920827;29;20935;-90
2021/06/17 01:33:44;;;;;;;19.10;13.07;;;20.50;97.30;;;;;;4920558;29;20859;-90
2021/06/17 01:36:17;;;;;;;22.90;14.23;;;20.50;97.30;;;;;;4920524;29;20863;-90
2021/06/17 01:38:46;;;;;;;17.97;12.50;;;20.40;97.30;;;;;;4921214;29;20495;-90
2021/06/17 01:41:13;;;;;;;22.10;14.30;;;20.40;97.30;;;;;;4920656;29;20471;-90
2021/06/17 01:43:43;;;;;;;14.40;12.30;;;20.40;97.30;;;;;;4921030;29;20415;-90
2021/06/17 01:46:09;;;;;;;16.67;12.60;;;20.30;97.30;;;;;;4920295;29;20507;-90
2021/06/17 01:48:36;;;;;;;17.23;13.30;;;20.20;97.30;;;;;;4920045;29;20466;-90
2021/06/17 01:51:02;;;;;;;14.70;12.97;;;20.20;97.30;;;;;;4919838;29;20446;-90
2021/06/17 01:53:28;;;;;;;18.90;13.43;;;20.20;97.30;;;;;;4920535;29;21140;-90
2021/06/17 01:55:59;;;;;;;21.90;13.60;;;20.20;97.30;;;;;;4920513;29;20235;-91
2021/06/17 01:58:25;;;;;;;18.57;14.07;;;20.10;97.30;;;;;;4920902;29;20408;-91
2021/06/17 02:00:51;;;;;;;16.53;12.90;;;20.10;97.30;;;;;;4920878;29;20411;-89
2021/06/17 02:03:19;;;;;;;16.97;13.27;;;20.10;97.30;;;;;;4920718;29;20416;-90
2021/06/17 02:05:47;;;;;;;16.80;13.30;;;20.00;97.30;;;;;;4937524;29;20538;-91
2021/06/17 02:08:15;;;;;;;22.13;13.47;;;19.90;97.30;;;;;;4920691;29;20431;-91
2021/06/17 02:10:42;;;;;;;17.20;13.00;;;19.90;97.30;;;;;;4937301;29;20929;-90
2021/06/17 02:13:11;;;;;;;19.00;12.50;;;19.80;97.30;;;;;;4921162;29;20415;-89
2021/06/17 02:15:37;;;;;;;22.47;13.00;;;19.70;97.30;;;;;;4921255;29;20483;-91
2021/06/17 02:18:04;;;;;;;15.90;12.40;;;19.70;97.30;;;;;;4921873;29;20419;-90
2021/06/17 02:20:30;;;;;;;18.00;12.93;;;19.50;97.30;;;;;;4921830;29;20420;-90
2021/06/17 02:23:01;;;;;;;18.40;14.10;;;19.50;97.30;;;;;;4921211;29;20420;-90
2021/06/17 02:25:28;;;;;;;21.53;13.40;;;19.40;97.30;;;;;;4938481;29;20202;-90
2021/06/17 02:27:58;;;;;;;17.37;12.70;;;19.40;97.30;;;;;;4921376;29;20423;-90
2021/06/17 02:30:27;;;;;;;19.00;13.80;;;19.30;97.30;;;;;;4921376;29;20444;-94
2021/06/17 02:32:56;;;;;;;17.10;13.03;;;19.30;97.30;;;;;;4920886;29;20783;-91
2021/06/17 02:35:24;;;;;;;20.90;13.10;;;19.20;97.30;;;;;;4920339;29;20467;-91
2021/06/17 02:37:54;;;;;;;21.57;13.70;;;19.20;97.30;;;;;;4920025;29;20784;-90
2021/06/17 02:40:21;;;;;;;21.97;13.77;;;19.10;97.30;;;;;;4919611;29;20419;-90
2021/06/17 02:42:48;;;;;;;19.27;13.17;;;19.10;97.30;;;;;;4919389;29;20419;-90
2021/06/17 02:45:15;;;;;;;17.23;13.60;;;19.10;97.30;;;;;;4919227;29;20444;-90
2021/06/17 02:47:41;;;;;;;25.07;13.63;;;19.10;97.30;;;;;;4919033;29;20427;-90
2021/06/17 02:50:07;;;;;;;14.80;12.90;;;19.10;97.30;;;;;;4919304;29;20426;-90
2021/06/17 02:52:33;;;;;;;17.10;12.50;;;19.10;97.30;;;;;;4919393;29;20208;-90
2021/06/17 02:54:58;;;;;;;18.50;12.63;;;19.10;97.30;;;;;;4919057;29;20501;-90
2021/06/17 02:58:02;;;;;;;18.60;12.80;;;19.10;97.30;;;;;;4918219;29;20223;-90
2021/06/17 03:00:35;;;;;;;21.40;13.63;;;19.00;97.30;;;;;;4836127;29;20198;-90
2021/06/17 03:03:07;;;;;;;21.10;13.90;;;19.00;97.30;;;;;;4919287;29;20780;-90
2021/06/17 03:05:41;;;;;;;20.13;13.20;;;19.00;97.30;;;;;;4919803;29;20513;-90
2021/06/17 03:08:11;;;;;;;15.90;12.50;;;19.10;97.30;;;;;;4937286;29;20437;-91
2021/06/17 03:10:39;;;;;;;20.10;13.07;;;19.10;97.30;;;;;;4919505;29;20420;-91
2021/06/17 03:13:10;;;;;;;17.40;12.20;;;19.10;97.30;;;;;;4919728;29;20434;-90
2021/06/17 03:15:39;;;;;;;17.43;11.80;;;19.10;97.30;;;;;;4919834;29;20962;-90
2021/06/17 03:18:06;;;;;;;18.30;11.90;;;19.10;97.30;;;;;;4919536;29;20512;-90
2021/06/17 03:20:34;;;;;;;20.60;11.90;;;19.00;97.30;;;;;;4919854;29;20416;-91
2021/06/17 03:23:05;;;;;;;21.63;12.67;;;19.00;97.30;;;;;;4920303;29;20412;-90
2021/06/17 03:25:32;;;;;;;22.73;13.47;;;19.00;97.30;;;;;;4920432;29;20447;-90
2021/06/17 03:42:30;;;;;;;19.73;13.00;;;18.80;97.30;;;;;;4917429;29;20473;-91
2021/06/17 03:44:56;;;;;;;19.40;13.37;;;18.80;97.30;;;;;;4900930;29;20447;-91
2021/06/17 03:47:23;;;;;;;18.70;13.03;;;18.80;97.30;;;;;;4900808;29;20421;-91
2021/06/17 03:49:51;;;;;;;19.10;12.60;;;18.80;97.30;;;;;;4899555;29;20412;-90
2021/06/17 03:52:17;;;;;;;16.47;13.50;;;18.80;97.30;;;;;;4899580;29;20413;-91
2021/06/17 03:54:44;;;;;;;18.27;12.80;;;18.80;97.30;;;;;;4899650;29;20465;-91
2021/06/17 03:57:10;;;;;;;17.30;12.70;;;18.80;97.30;;;;;;4899639;29;20443;-91
2021/06/17 03:59:40;;;;;;;15.40;11.90;;;18.80;97.30;;;;;;4899655;29;20425;-90
2021/06/17 04:02:06;;;;;;;22.17;12.77;;;18.90;97.30;;;;;;4900111;29;20448;-91
2021/06/17 04:04:31;;;;;;;17.13;11.63;;;18.90;97.30;;;;;;4900150;29;21200;-90
2021/06/17 04:07:00;;;;;;;14.60;12.37;;;18.90;97.30;;;;;;4900138;29;20413;-91
2021/06/17 04:09:35;;;;;;;15.40;11.80;;;18.90;97.30;;;;;;4902829;29;20264;-91
2021/06/17 04:12:22;;;;;;;16.70;11.73;;;19.00;97.30;;;;;;4902670;29;20414;-91
2021/06/17 04:14:53;;;;;;;15.30;11.37;;;19.00;97.30;;;;;;4903725;29;20527;-90
2021/06/17 04:17:26;;;;;;;16.33;11.40;;;19.10;97.30;;;;;;4903688;29;20428;-92
2021/06/17 04:19:53;;;;;;;15.80;11.10;;;19.10;97.30;;;;;;4903901;29;20446;-90
2021/06/17 04:22:21;;;;;;;16.40;10.97;;;19.20;97.30;;;;;;4903735;29;20427;-89
2021/06/17 04:24:51;;;;;;;14.80;10.30;;;19.20;97.30;;;;;;4903460;29;20487;-90
2021/06/17 04:27:20;;;;;;;15.77;11.17;;;19.30;97.30;;;;;;4903689;29;20424;-89
2021/06/17 04:29:46;;;;;;;17.00;11.40;;;19.40;97.30;;;;;;4903395;29;20906;-89
2021/06/17 04:32:13;;;;;;;16.50;11.27;;;19.40;97.30;;;;;;4904049;29;20504;-90
2021/06/17 04:34:40;;;;;;;17.10;10.00;;;19.50;97.30;;;;;;4904018;29;20212;-91
2021/06/17 04:37:10;;;;;;;16.43;10.27;;;19.60;97.30;;;;;;4904508;29;20416;-91
2021/06/17 04:39:37;;;;;;;15.07;10.57;;;19.60;97.30;;;;;;4904707;29;20425;-90
2021/06/17 04:42:03;;;;;;;14.93;10.33;;;19.70;97.30;;;;;;4904675;29;20512;-91
2021/06/17 04:44:30;;;;;;;16.10;10.70;;;19.70;97.30;;;;;;4904903;29;20449;-91
2021/06/17 05:00:51;;;;;;;15.27;10.13;;;19.90;97.30;;;;;;5319739;23;20925;-89
2021/06/17 05:03:20;;;;;;;19.73;10.83;;;20.00;97.30;;;;;;4945578;29;20475;-90
2021/06/17 05:05:48;;;;;;;13.03;9.57;;;20.00;97.30;;;;;;4925791;29;20424;-91
2021/06/17 05:10:52;;;;;;;15.20;9.80;;;20.10;97.30;;;;;;4915247;29;20968;-66
2021/06/17 05:13:19;;;;;;;14.97;10.67;;;20.10;97.30;;;;;;4909394;29;20864;-67
2021/06/17 05:15:45;;;;;;;14.40;8.97;;;20.10;97.30;;;;;;4911317;29;20551;-66
2021/06/17 05:18:10;;;;;;;16.80;9.57;;;20.20;97.30;;;;;;4914459;29;20503;-66
2021/06/17 05:20:36;;;;;;;18.40;9.87;;;20.20;97.30;;;;;;4888439;29;20189;-66
2021/06/17 05:23:02;;;;;;;13.47;9.50;;;20.20;97.30;;;;;;4917193;23;20302;-66
2021/06/17 05:25:28;;;;;;;17.73;9.23;;;20.30;97.30;;;;;;4914586;29;20180;-66
2021/06/17 05:27:53;;;;;;;14.03;8.80;;;20.30;97.30;;;;;;4916684;29;20618;-66
2021/06/17 05:30:19;;;;;;;11.87;8.97;;;20.40;97.30;;;;;;4916801;29;20271;-66
2021/06/17 05:32:45;;;;;;;17.73;8.63;;;20.40;97.30;;;;;;4917006;29;20208;-66
2021/06/17 05:35:11;;;;;;;14.80;9.13;;;20.50;97.30;;;;;;4931904;29;20468;-67
2021/06/17 05:37:37;;;;;;;12.63;9.20;;;20.60;97.30;;;;;;4916778;29;20183;-66
2021/06/17 05:40:03;;;;;;;12.43;8.93;;;20.60;97.30;;;;;;4917943;29;20427;-66
2021/06/17 05:42:30;;;;;;;15.53;9.43;;;20.70;97.30;;;;;;4918279;29;20207;-66
2021/06/17 05:44:56;;;;;;;17.93;9.10;;;20.80;97.30;;;;;;4903377;29;20458;-66
2021/06/17 05:47:22;;;;;;;14.10;8.87;;;20.90;97.30;;;;;;4914780;29;20413;-66
2021/06/17 05:49:48;;;;;;;14.63;8.47;;;20.90;97.30;;;;;;4898369;29;20181;-66
2021/06/17 05:52:13;;;;;;;14.37;9.20;;;21.00;97.30;;;;;;4913815;29;20462;-66
2021/06/17 05:54:39;;;;;;;15.67;8.83;;;21.10;97.30;;;;;;4913817;29;20205;-66
2021/06/17 05:57:05;;;;;;;13.90;8.37;;;21.10;97.30;;;;;;4914641;29;20712;-66
2021/06/17 05:59:32;;;;;;;14.33;8.17;;;21.20;97.30;;;;;;4914852;29;20207;-67
2021/06/17 06:01:58;;;;;;;10.27;7.40;;;21.40;97.30;;;;;;4914569;29;20440;-67
2021/06/17 06:04:23;;;;;;;13.90;8.33;;;21.50;97.30;;;;;;4924464;29;20424;-66
2021/06/17 06:06:49;;;;;;;15.60;8.10;;;21.60;97.30;;;;;;4900355;29;20186;-66
2021/06/17 06:09:14;;;;;;;12.33;7.50;;;21.60;97.30;;;;;;4933560;29;20172;-66
2021/06/17 06:11:40;;;;;;;14.60;7.80;;;21.70;97.30;;;;;;4933466;29;20203;-66
2021/06/17 06:14:06;;;;;;;10.57;7.43;;;21.80;97.30;;;;;;4933455;29;20247;-66
2021/06/17 06:16:33;;;;;;;12.10;7.90;;;21.80;97.30;;;;;;4933349;29;20192;-66
2021/06/17 06:18:59;;;;;;;15.07;7.53;;;21.90;97.30;;;;;;4933411;29;20183;-67
2021/06/17 06:21:25;;;;;;;12.43;7.73;;;21.90;97.30;;;;;;4933239;29;20809;-66
2021/06/17 06:23:50;;;;;;;13.33;8.30;;;21.90;97.30;;;;;;4933148;29;20593;-66
2021/06/17 06:26:16;;;;;;;13.23;7.90;;;22.00;97.30;;;;;;4933011;29;20266;-66
2021/06/17 06:28:41;;;;;;;11.43;8.17;;;22.10;97.30;;;;;;4929880;29;20195;-66
2021/06/17 06:31:07;;;;;;;12.20;7.00;;;22.10;97.30;;;;;;4905042;29;20652;-66
2021/06/17 06:33:32;;;;;;;11.90;7.50;;;22.30;97.30;;;;;;4897677;29;20185;-66
2021/06/17 06:35:58;;;;;;;12.33;7.60;;;22.40;97.30;;;;;;4910985;29;20203;-66
2021/06/17 06:38:23;;;;;;;9.07;6.77;;;22.60;97.30;;;;;;4928431;29;20194;-66
2021/06/17 06:40:49;;;;;;;9.23;7.13;;;22.70;97.30;;;;;;4929147;29;20191;-66
2021/06/17 06:43:16;;;;;;;11.93;6.83;;;22.80;97.30;;;;;;4930401;29;20255;-66
2021/06/17 06:45:43;;;;;;;13.37;6.90;;;23.00;97.20;;;;;;4910187;29;20188;-66
2021/06/17 06:48:09;;;;;;;10.60;7.20;;;23.10;97.10;;;;;;4944164;29;21013;-66
2021/06/17 06:50:35;;;;;;;9.00;6.70;;;23.20;97.30;;;;;;4917085;29;21026;-66
2021/06/17 06:53:01;;;;;;;10.53;6.70;;;23.40;96.60;;;;;;4925357;29;20775;-66
2021/06/17 06:55:26;;;;;;;9.30;6.50;;;23.50;96.80;;;;;;4905929;29;21007;-66
2021/06/17 06:57:52;;;;;;;13.10;7.13;;;23.60;97.00;;;;;;4912057;29;20168;-67
2021/06/17 07:00:18;;;;;;;13.77;7.40;;;23.70;96.60;;;;;;4922527;29;20711;-66
2021/06/17 07:02:45;;;;;;;9.27;6.20;;;23.80;96.60;;;;;;4938311;29;20253;-67
2021/06/17 07:05:11;;;;;;;10.00;6.70;;;23.90;95.60;;;;;;4904732;29;20432;-67
2021/06/17 07:07:37;;;;;;;10.37;6.63;;;24.00;95.80;;;;;;4928958;29;20432;-66
2021/06/17 07:10:04;;;;;;;17.37;7.07;;;24.10;96.50;;;;;;4915786;29;20431;-66
2021/06/17 07:12:29;;;;;;;10.70;6.07;;;24.10;94.40;;;;;;4925147;29;20199;-66
2021/06/17 07:14:57;;;;;;;10.43;6.43;;;24.20;93.60;;;;;;4906815;29;20523;-66
2021/06/17 07:17:23;;;;;;;9.70;5.63;;;24.30;93.40;;;;;;4903036;29;20204;-66
2021/06/17 07:19:48;;;;;;;11.50;6.13;;;24.40;93.40;;;;;;4899671;29;20781;-67
2021/06/17 07:22:14;;;;;;;10.60;6.10;;;24.50;94.00;;;;;;4927378;29;20208;-66
2021/06/17 07:24:39;;;;;;;11.23;6.70;;;24.60;93.60;;;;;;4909637;29;20747;-67
2021/06/17 07:27:05;;;;;;;9.23;5.60;;;24.70;94.00;;;;;;4907052;29;20183;-67
2021/06/17 07:29:31;;;;;;;10.13;6.10;;;24.80;94.50;;;;;;4925014;29;20232;-67
2021/06/17 07:31:57;;;;;;;11.07;5.80;;;24.90;93.20;;;;;;4917105;29;20204;-67
2021/06/17 07:34:23;;;;;;;11.00;5.73;;;25.00;91.20;;;;;;4928138;29;20192;-69
2021/06/17 07:36:50;;;;;;;11.43;5.90;;;25.10;88.50;;;;;;4932092;29;20659;-68
2021/06/17 07:39:16;;;;;;;9.00;5.77;;;25.20;89.30;;;;;;4915531;29;20559;-68
2021/06/17 07:41:42;;;;;;;7.87;5.67;;;25.40;91.00;;;;;;4914765;29;20530;-68
2021/06/17 07:44:08;;;;;;;11.90;6.67;;;25.40;89.90;;;;;;4918366;29;20187;-69
2021/06/17 07:46:34;;;;;;;10.37;5.50;;;25.50;90.90;;;;;;4935544;29;21025;-69
2021/06/17 07:49:00;;;;;;;10.53;5.93;;;25.60;90.20;;;;;;4936019;29;20750;-69
2021/06/17 07:51:27;;;;;;;8.70;5.87;;;25.70;89.10;;;;;;4918956;29;20533;-69
2021/06/17 07:53:52;;;;;;;7.80;6.13;;;25.80;87.60;;;;;;4918361;29;20421;-69
2021/06/17 07:56:18;;;;;;;10.50;5.90;;;26.00;88.30;;;;;;4916984;29;20460;-69
2021/06/17 07:58:46;;;;;;;11.90;6.20;;;26.00;89.10;;;;;;4915675;29;20279;-69
2021/06/17 08:01:11;;;;;;;7.40;5.80;;;26.10;89.60;;;;;;4934599;29;20195;-69
2021/06/17 08:03:37;;;;;;;10.20;5.90;;;26.20;89.50;;;;;;4919237;29;20490;-68
2021/06/17 08:06:03;;;;;;;8.17;6.13;;;26.30;86.90;;;;;;4918964;29;20207;-70
2021/06/17 08:08:28;;;;;;;9.40;5.93;;;26.40;87.70;;;;;;4907497;29;20668;-69
2021/06/17 08:10:54;;;;;;;11.47;5.70;;;26.50;89.50;;;;;;4909577;29;20255;-70
2021/06/17 08:13:19;;;;;;;10.60;5.70;;;26.50;90.10;;;;;;4916509;29;20187;-69
2021/06/17 08:15:45;;;;;;;9.20;5.90;;;26.60;90.20;;;;;;4935763;29;20683;-69
2021/06/17 08:18:11;;;;;;;8.27;5.90;;;26.70;90.20;;;;;;4916773;29;20455;-70
2021/06/17 08:20:38;;;;;;;7.63;6.20;;;26.70;91.00;;;;;;4933710;29;20200;-70
2021/06/17 08:23:03;;;;;;;7.13;6.07;;;26.80;91.00;;;;;;4934756;29;20235;-70
2021/06/17 08:25:29;;;;;;;11.30;6.40;;;26.90;91.70;;;;;;4940503;29;20426;-70
2021/06/17 08:28:00;;;;;;;7.20;5.30;;;26.90;91.10;;;;;;4932914;29;20183;-71
2021/06/17 08:30:26;;;;;;;9.87;6.10;;;27.00;88.00;;;;;;4926299;29;20259;-71
2021/06/17 08:32:52;;;;;;;11.67;5.40;;;27.10;88.80;;;;;;4919825;29;20447;-71
2021/06/17 08:35:17;;;;;;;7.40;5.87;;;27.10;89.90;;;;;;4912360;29;20218;-70
2021/06/17 08:37:43;;;;;;;9.47;6.53;;;27.20;88.40;;;;;;4918566;29;20691;-71
2021/06/17 08:40:10;;;;;;;9.90;6.50;;;27.20;88.70;;;;;;4918724;29;20180;-70
2021/06/17 08:42:36;;;;;;;9.03;5.30;;;27.30;88.90;;;;;;4908834;29;20455;-70
2021/06/17 08:45:05;;;;;;;6.80;5.07;;;27.40;88.80;;;;;;4907309;29;20437;-70
2021/06/17 08:47:32;;;;;;;8.30;5.40;;;27.40;87.70;;;;;;4915233;29;20283;-70
2021/06/17 08:50:00;;;;;;;9.83;5.83;;;27.50;87.70;;;;;;4905491;29;20442;-71
2021/06/17 08:52:31;;;;;;;8.40;5.67;;;27.50;87.10;;;;;;4912912;29;20515;-71
2021/06/17 08:55:12;;;;;;;19.17;5.60;;;27.60;87.60;;;;;;4915246;29;20464;-71
2021/06/17 08:57:38;;;;;;;9.50;5.10;;;27.60;86.60;;;;;;4924712;29;20435;-72
2021/06/17 09:00:28;;;;;;;10.30;5.77;;;27.60;85.40;;;;;;4920982;23;20510;-70
2021/06/17 09:03:04;;;;;;;8.00;5.20;;;27.70;85.50;;;;;;4909973;29;20436;-69
2021/06/17 09:05:31;;;;;;;6.90;5.27;;;27.80;86.90;;;;;;4920613;29;20919;-70
2021/06/17 09:07:57;;;;;;;10.07;5.10;;;27.80;86.40;;;;;;4901546;29;20426;-70
2021/06/17 09:10:23;;;;;;;8.97;6.07;;;27.90;86.00;;;;;;4914993;29;20436;-70
2021/06/17 09:12:52;;;;;;;8.13;5.40;;;27.90;85.80;;;;;;4897848;29;20436;-70
2021/06/17 09:15:32;;;;;;;7.40;5.57;;;28.00;86.10;;;;;;4896200;29;20473;-70
2021/06/17 09:18:31;;;;;;;8.53;5.93;;;28.10;85.70;;;;;;4905357;29;20444;-70
2021/06/17 09:21:10;;;;;;;9.87;5.97;;;28.20;84.90;;;;;;4887424;29;20453;-71
2021/06/17 09:23:38;;;;;;;7.50;5.60;;;28.20;84.50;;;;;;4899469;29;20862;-71
2021/06/17 09:26:12;;;;;;;8.27;5.90;;;28.30;84.20;;;;;;4915931;29;20533;-71
2021/06/17 09:29:00;;;;;;;9.57;5.70;;;28.40;83.60;;;;;;4910985;29;20424;-71
2021/06/17 09:31:27;;;;;;;10.63;5.87;;;28.50;84.50;;;;;;4915470;29;20463;-70
2021/06/17 09:33:54;;;;;;;9.10;5.90;;;28.60;83.50;;;;;;4895081;29;20432;-70
2021/06/17 09:36:24;;;;;;;8.80;6.07;;;28.70;84.70;;;;;;4902100;29;20523;-70
2021/06/17 09:38:53;;;;;;;9.70;6.17;;;28.80;85.10;;;;;;4926825;23;20515;-70
2021/06/17 09:41:46;;;;;;;8.87;5.80;;;28.90;85.70;;;;;;4890294;29;20449;-71
2021/06/17 09:44:28;;;;;;;10.80;5.63;;;29.00;85.10;;;;;;4898154;29;20458;-71
2021/06/17 09:47:11;;;;;;;8.13;6.53;;;29.00;84.20;;;;;;4900711;29;20467;-71
2021/06/17 09:49:42;;;;;;;11.80;5.23;;;29.10;84.50;;;;;;4883645;29;20488;-71
2021/06/17 09:52:09;;;;;;;11.90;6.53;;;29.20;85.80;;;;;;4910236;29;20826;-72
2021/06/17 09:54:39;;;;;;;6.27;5.40;;;29.30;85.90;;;;;;4923649;29;20420;-71
2021/06/17 09:57:05;;;;;;;9.10;5.40;;;29.30;84.60;;;;;;4915016;29;20509;-71
2021/06/17 09:59:49;;;;;;;8.67;6.10;;;29.40;84.10;;;;;;4910804;29;20880;-71
2021/06/17 10:02:22;;;;;;;18.47;6.23;;;29.50;83.20;;;;;;4883201;29;20505;-71
2021/06/17 10:04:48;;;;;;;7.87;6.00;;;29.60;81.90;;;;;;4904351;29;20454;-71
2021/06/17 10:07:16;;;;;;;8.10;6.20;;;29.70;83.30;;;;;;4889341;29;20518;-71
2021/06/17 10:09:42;;;;;;;8.37;5.73;;;29.80;82.70;;;;;;4895590;29;20458;-71
2021/06/17 10:12:08;;;;;;;6.97;5.90;;;29.80;82.20;;;;;;4896758;29;20428;-71
2021/06/17 10:14:34;;;;;;;12.20;5.80;;;29.90;83.00;;;;;;4902501;29;20852;-72
2021/06/17 10:17:00;;;;;;;11.37;5.43;;;29.90;81.70;;;;;;4877541;29;20433;-71
2021/06/17 10:19:26;;;;;;;8.37;6.10;;;29.90;81.60;;;;;;4876841;29;20184;-71
2021/06/17 10:21:52;;;;;;;8.03;5.93;;;30.00;79.30;;;;;;4894260;29;20228;-72
2021/06/17 10:24:19;;;;;;;7.27;5.43;;;30.00;79.50;;;;;;4894573;29;20448;-71
2021/06/17 10:26:48;;;;;;;7.50;5.57;;;30.10;80.50;;;;;;4914691;29;20518;-72
2021/06/17 10:29:26;;;;;;;8.37;5.80;;;30.20;79.40;;;;;;4914142;29;20420;-72
2021/06/17 10:31:53;;;;;;;6.83;5.00;;;30.20;78.70;;;;;;4897305;29;20444;-72
2021/06/17 10:34:24;;;;;;;7.40;5.20;;;30.30;79.40;;;;;;4895533;29;20440;-72
2021/06/17 10:37:15;;;;;;;7.50;5.30;;;30.40;78.90;;;;;;4881474;29;20456;-72
2021/06/17 10:39:44;;;;;;;8.97;5.17;;;30.50;79.70;;;;;;4894066;29;20467;-72
2021/06/17 10:42:14;;;;;;;7.47;5.30;;;30.50;78.40;;;;;;4895792;29;20433;-72
2021/06/17 10:44:51;;;;;;;7.23;5.63;;;30.50;78.50;;;;;;4896137;29;20420;-72
2021/06/17 10:47:36;;;;;;;6.23;5.70;;;30.60;80.00;;;;;;4914375;29;20418;-72
2021/06/17 10:50:03;;;;;;;6.57;5.50;;;30.70;81.20;;;;;;4913986;29;20405;-72
2021/06/17 10:52:30;;;;;;;7.00;5.20;;;30.80;79.50;;;;;;4903167;29;20441;-72
2021/06/17 10:54:57;;;;;;;6.50;5.87;;;30.80;77.60;;;;;;4895388;29;20552;-72
2021/06/17 11:02:53;;;;;;;5.20;4.77;;;31.00;77.50;;;;;;4895742;29;20401;-72
2021/06/17 11:08:14;;;;;;;8.90;4.90;;;31.10;76.20;;;;;;4912541;29;20460;-72
2021/06/17 11:10:48;;;;;;;8.93;5.07;;;31.10;76.40;;;;;;4888878;29;20876;-72
2021/06/17 11:13:54;;;;;;;5.70;4.60;;;31.10;74.70;;;;;;4877673;29;20421;-72
2021/06/17 11:16:20;;;;;;;6.70;4.70;;;31.20;75.90;;;;;;4870787;29;20472;-72
2021/06/17 11:21:30;;;;;;;7.20;5.00;;;31.40;76.30;;;;;;4902581;29;20568;-72
2021/06/17 11:24:01;;;;;;;5.97;4.90;;;31.50;77.30;;;;;;4916164;29;20431;-72
2021/06/17 11:26:46;;;;;;;7.40;5.03;;;31.60;75.10;;;;;;4917993;29;20455;-72
2021/06/17 11:29:18;;;;;;;5.03;4.67;;;31.70;75.50;;;;;;4917342;29;20417;-72
2021/06/17 11:31:45;;;;;;;5.50;4.50;;;31.70;75.60;;;;;;4917932;23;20499;-72
2021/06/17 11:34:36;;;;;;;5.60;4.40;;;31.80;75.70;;;;;;4933214;29;20731;-69
2021/06/17 11:37:05;;;;;;;11.97;5.53;;;31.80;76.70;;;;;;4917204;29;20420;-69
2021/06/17 11:39:33;;;;;;;7.20;5.20;;;31.80;75.30;;;;;;4900170;29;21030;-69
2021/06/17 11:42:03;;;;;;;5.83;5.10;;;31.80;76.90;;;;;;4886523;29;20441;-69
2021/06/17 11:44:30;;;;;;;4.33;4.10;;;31.80;77.00;;;;;;4884183;29;20409;-69
2021/06/17 11:47:07;;;;;;;5.93;5.00;;;31.80;76.10;;;;;;4900340;29;20523;-70
2021/06/17 11:49:39;;;;;;;5.50;5.20;;;31.90;76.00;;;;;;4917712;29;20420;-69
2021/06/17 11:52:10;;;;;;;5.90;5.10;;;31.90;76.50;;;;;;4902284;29;20438;-69
2021/06/17 11:54:36;;;;;;;5.60;5.00;;;32.00;76.10;;;;;;4916973;29;20428;-69
2021/06/17 11:57:03;;;;;;;6.77;4.90;;;32.00;75.70;;;;;;4916407;29;20428;-69
2021/06/17 11:59:34;;;;;;;6.80;5.30;;;32.10;76.80;;;;;;4915938;29;20203;-69
2021/06/17 12:02:03;;;;;;;10.60;5.07;;;32.20;76.80;;;;;;4916850;29;20445;-67
2021/06/17 12:04:55;;;;;;;5.70;4.90;;;32.30;75.40;;;;;;4906469;29;20941;-67
2021/06/17 12:07:48;;;;;;;6.73;4.90;;;32.30;76.00;;;;;;4875283;29;20452;-67
2021/06/17 12:10:25;;;;;;;6.43;4.73;;;32.40;76.10;;;;;;4908515;29;20425;-68
2021/06/17 12:12:59;;;;;;;6.80;4.27;;;32.40;75.10;;;;;;4900845;29;20420;-67
2021/06/17 12:15:28;;;;;;;6.30;4.20;;;32.40;73.10;;;;;;4935432;29;20491;-69
2021/06/17 12:17:58;;;;;;;8.80;4.67;;;32.30;74.20;;;;;;4898187;29;20452;-69
2021/06/17 12:20:33;;;;;;;5.80;4.30;;;32.40;76.40;;;;;;4903692;29;20414;-68
2021/06/17 12:22:59;;;;;;;5.43;4.60;;;32.40;74.80;;;;;;4880825;29;20421;-68
2021/06/17 12:25:26;;;;;;;6.93;4.87;;;32.50;73.00;;;;;;4890115;29;20444;-68
2021/06/17 12:27:53;;;;;;;4.70;4.40;;;32.60;74.50;;;;;;4895424;29;20504;-68
2021/06/17 12:30:40;;;;;;;5.50;4.47;;;32.70;75.70;;;;;;4889173;29;20428;-67
2021/06/17 12:33:08;;;;;;;7.80;4.50;;;32.70;76.20;;;;;;4910140;29;20698;-67
2021/06/17 12:35:53;;;;;;;6.60;5.13;;;32.70;74.70;;;;;;4896357;29;20472;-67
2021/06/17 12:38:32;;;;;;;5.03;4.20;;;32.90;76.60;;;;;;4933066;29;20408;-69
2021/06/17 12:41:18;;;;;;;6.77;4.83;;;33.00;75.90;;;;;;4919905;29;20609;-70
2021/06/17 12:43:50;;;;;;;6.70;5.20;;;33.10;74.30;;;;;;4882724;29;20461;-69
2021/06/17 12:46:27;;;;;;;5.20;4.77;;;33.20;73.60;;;;;;4893983;29;20491;-67
2021/06/17 12:52:10;;;;;;;6.73;4.63;;;33.20;74.90;;;;;;4883464;29;20438;-69
2021/06/17 12:54:38;;;;;;;6.33;4.20;;;33.30;73.80;;;;;;4880891;29;20428;-70
2021/06/17 12:57:10;;;;;;;5.47;4.03;;;33.40;74.40;;;;;;4884136;29;20493;-70
2021/06/17 12:59:49;;;;;;;6.03;4.43;;;33.40;74.30;;;;;;4898640;29;20421;-71
2021/06/17 13:02:35;;;;;;;6.50;4.47;;;33.50;74.10;;;;;;4915179;29;21172;-69
2021/06/17 13:05:06;;;;;;;5.60;4.43;;;33.60;73.60;;;;;;4883798;29;20516;-70
2021/06/17 13:07:33;;;;;;;4.50;3.90;;;33.60;72.90;;;;;;4903124;29;20436;-70
2021/06/17 13:10:16;;;;;;;4.80;4.40;;;33.60;71.50;;;;;;4897033;29;20428;-70
2021/06/17 13:12:42;;;;;;;4.43;4.03;;;33.70;71.10;;;;;;4915575;29;20455;-70
2021/06/17 13:15:22;;;;;;;5.13;4.20;;;33.70;72.60;;;;;;4898408;29;20604;-70
2021/06/17 13:17:50;;;;;;;11.63;3.63;;;33.70;72.50;;;;;;4897881;29;20428;-69
2021/06/17 13:20:30;;;;;;;7.97;4.00;;;33.80;71.80;;;;;;4915456;29;20779;-68
2021/06/17 13:22:58;;;;;;;4.87;4.07;;;33.80;69.80;;;;;;4915732;29;20412;-70
2021/06/17 13:25:36;;;;;;;6.57;4.30;;;33.90;69.80;;;;;;4916254;29;20413;-69
2021/06/17 13:28:15;;;;;;;5.80;4.20;;;33.90;72.10;;;;;;4898606;29;20801;-68
2021/06/17 13:30:41;;;;;;;5.10;4.10;;;34.00;72.60;;;;;;4915207;29;20511;-68
2021/06/17 13:33:07;;;;;;;5.90;4.00;;;34.10;70.60;;;;;;4898985;29;20468;-68
2021/06/17 13:35:32;;;;;;;8.00;3.83;;;34.20;71.90;;;;;;4898730;29;20686;-68
2021/06/17 13:37:59;;;;;;;8.90;4.10;;;34.30;71.30;;;;;;4909704;29;20217;-68
2021/06/17 13:40:25;;;;;;;6.13;4.03;;;34.30;72.60;;;;;;4899908;29;20193;-70
2021/06/17 13:42:59;;;;;;;5.00;3.90;;;34.30;72.90;;;;;;4911111;29;20985;-70
2021/06/17 13:45:25;;;;;;;5.40;4.37;;;34.40;71.80;;;;;;4908982;29;20471;-70
2021/06/17 13:47:52;;;;;;;5.53;4.07;;;34.50;71.40;;;;;;4933605;29;20834;-70
2021/06/17 13:50:18;;;;;;;5.07;3.70;;;34.60;71.30;;;;;;4933692;29;20416;-70
2021/06/17 13:52:44;;;;;;;5.17;4.00;;;34.60;70.40;;;;;;4913852;29;20437;-70
2021/06/17 13:55:17;;;;;;;5.77;3.63;;;34.70;72.10;;;;;;4893365;29;20511;-68
2021/06/17 13:57:44;;;;;;;10.97;4.13;;;34.80;68.40;;;;;;4920156;29;20184;-70
2021/06/17 14:00:14;;;;;;;7.30;4.23;;;34.70;72.90;;;;;;4897655;29;20836;-70
2021/06/17 14:02:41;;;;;;;10.17;4.07;;;34.80;70.80;;;;;;4899969;29;20455;-69
2021/06/17 14:05:07;;;;;;;7.00;4.63;;;34.90;71.20;;;;;;4899501;29;20607;-70
2021/06/17 14:07:33;;;;;;;9.37;4.00;;;34.90;71.30;;;;;;4898070;29;20452;-69
2021/06/17 14:09:58;;;;;;;4.40;3.90;;;35.00;70.50;;;;;;4914970;29;20454;-69
2021/06/17 14:12:26;;;;;;;6.17;4.13;;;35.00;68.80;;;;;;4928195;29;20330;-68